sensor_id;sensor_type;location;lat;lon;timestamp;P1;durP1;ratioP1;P2;durP2;ratioP2
46881;SDS011;44112;38.408;-122.974;2022-08-07T00:01:10;8.02;;;4.03;;
46881;SDS011;44112;38.408;-122.974;2022-08-07T00:03:37;9.05;;;3.65;;
46881;SDS011;44112;38.408;-122.974;2022-08-07T00:06:04;6.72;;;3.35;;
46881;SDS011;44112;38.408;-122.974;2022-08-07T00:08:34;6.40;;;3.22;;
46881;SDS011;44112;38.408;-122.974;2022-08-07T00:11:02;8.85;;;3.70;;
46881;SDS011;44112;38.408;-122.974;2022-08-07T00:13:30;9.43;;;4.10;;
46881;SDS011;44112;38.408;-122.974;2022-08-07T00:15:58;12.02;;;4.65;;
46881;SDS011;44112;38.408;-122.974;2022-08-07T00:18:25;15.45;;;4.80;;
46881;SDS011;44112;38.408;-122.974;2022-08-07T00:20:57;13.65;;;4.35;;
46881;SDS011;44112;38.408;-122.974;2022-08-07T00:23:26;14.82;;;4.35;;
46881;SDS011;44112;38.408;-122.974;2022-08-07T00:25:53;19.90;;;4.80;;
46881;SDS011;44112;38.408;-122.974;2022-08-07T00:28:21;12.63;;;3.80;;
46881;SDS011;44112;38.408;-122.974;2022-08-07T00:30:48;13.10;;;3.75;;
46881;SDS011;44112;38.408;-122.974;2022-08-07T00:33:15;10.02;;;3.95;;
46881;SDS011;44112;38.408;-122.974;2022-08-07T00:35:42;10.45;;;3.63;;
46881;SDS011;44112;38.408;-122.974;2022-08-07T00:38:09;10.35;;;3.72;;
46881;SDS011;44112;38.408;-122.974;2022-08-07T00:40:36;9.90;;;3.72;;
46881;SDS011;44112;38.408;-122.974;2022-08-07T00:43:03;7.95;;;3.10;;
46881;SDS011;44112;38.408;-122.974;2022-08-07T00:45:30;9.27;;;3.88;;
46881;SDS011;44112;38.408;-122.974;2022-08-07T00:47:57;11.13;;;3.75;;
46881;SDS011;44112;38.408;-122.974;2022-08-07T00:50:23;8.50;;;3.70;;
46881;SDS011;44112;38.408;-122.974;2022-08-07T00:52:49;9.90;;;3.90;;
46881;SDS011;44112;38.408;-122.974;2022-08-07T00:55:16;8.10;;;3.85;;
46881;SDS011;44112;38.408;-122.974;2022-08-07T00:57:43;11.60;;;3.92;;
46881;SDS011;44112;38.408;-122.974;2022-08-07T01:00:10;10.52;;;3.95;;
46881;SDS011;44112;38.408;-122.974;2022-08-07T01:02:40;8.75;;;3.70;;
46881;SDS011;44112;38.408;-122.974;2022-08-07T01:05:08;9.00;;;3.70;;
46881;SDS011;44112;38.408;-122.974;2022-08-07T01:07:35;10.10;;;3.92;;
46881;SDS011;44112;38.408;-122.974;2022-08-07T01:10:02;10.00;;;3.50;;
46881;SDS011;44112;38.408;-122.974;2022-08-07T01:12:29;7.50;;;3.63;;
46881;SDS011;44112;38.408;-122.974;2022-08-07T01:14:56;7.05;;;3.40;;
46881;SDS011;44112;38.408;-122.974;2022-08-07T01:17:25;7.32;;;3.45;;
46881;SDS011;44112;38.408;-122.974;2022-08-07T01:19:52;9.32;;;3.90;;
46881;SDS011;44112;38.408;-122.974;2022-08-07T01:22:23;8.50;;;3.60;;
46881;SDS011;44112;38.408;-122.974;2022-08-07T01:24:51;8.15;;;3.53;;
46881;SDS011;44112;38.408;-122.974;2022-08-07T01:27:18;7.18;;;3.50;;
46881;SDS011;44112;38.408;-122.974;2022-08-07T01:29:45;8.20;;;3.88;;
46881;SDS011;44112;38.408;-122.974;2022-08-07T01:32:12;7.63;;;3.60;;
46881;SDS011;44112;38.408;-122.974;2022-08-07T01:34:39;7.95;;;3.40;;
46881;SDS011;44112;38.408;-122.974;2022-08-07T01:37:08;6.75;;;3.53;;
46881;SDS011;44112;38.408;-122.974;2022-08-07T01:39:37;8.07;;;3.47;;
46881;SDS011;44112;38.408;-122.974;2022-08-07T01:42:04;8.65;;;3.88;;
46881;SDS011;44112;38.408;-122.974;2022-08-07T01:44:31;6.70;;;3.20;;
46881;SDS011;44112;38.408;-122.974;2022-08-07T01:46:58;6.88;;;3.45;;
46881;SDS011;44112;38.408;-122.974;2022-08-07T01:49:26;8.23;;;3.55;;
46881;SDS011;44112;38.408;-122.974;2022-08-07T01:51:52;9.43;;;3.47;;
46881;SDS011;44112;38.408;-122.974;2022-08-07T01:54:20;9.10;;;3.80;;
46881;SDS011;44112;38.408;-122.974;2022-08-07T01:56:48;8.30;;;3.45;;
46881;SDS011;44112;38.408;-122.974;2022-08-07T01:59:32;7.28;;;3.40;;
46881;SDS011;44112;38.408;-122.974;2022-08-07T02:02:20;7.10;;;3.25;;
46881;SDS011;44112;38.408;-122.974;2022-08-07T02:04:57;9.10;;;3.55;;
46881;SDS011;44112;38.408;-122.974;2022-08-07T02:07:31;7.57;;;3.60;;
46881;SDS011;44112;38.408;-122.974;2022-08-07T02:10:00;7.82;;;3.80;;
46881;SDS011;44112;38.408;-122.974;2022-08-07T02:12:30;7.70;;;3.70;;
46881;SDS011;44112;38.408;-122.974;2022-08-07T02:15:00;7.05;;;3.08;;
46881;SDS011;44112;38.408;-122.974;2022-08-07T02:17:28;7.60;;;3.20;;
46881;SDS011;44112;38.408;-122.974;2022-08-07T02:19:56;7.68;;;3.30;;
46881;SDS011;44112;38.408;-122.974;2022-08-07T02:22:25;6.55;;;3.50;;
46881;SDS011;44112;38.408;-122.974;2022-08-07T02:24:54;8.63;;;3.40;;
46881;SDS011;44112;38.408;-122.974;2022-08-07T02:27:22;7.97;;;3.60;;
46881;SDS011;44112;38.408;-122.974;2022-08-07T02:29:51;8.75;;;4.07;;
46881;SDS011;44112;38.408;-122.974;2022-08-07T02:32:20;7.25;;;3.58;;
46881;SDS011;44112;38.408;-122.974;2022-08-07T02:34:48;7.55;;;3.33;;
46881;SDS011;44112;38.408;-122.974;2022-08-07T02:37:17;7.43;;;3.65;;
46881;SDS011;44112;38.408;-122.974;2022-08-07T02:39:45;6.05;;;3.20;;
46881;SDS011;44112;38.408;-122.974;2022-08-07T02:42:13;9.15;;;4.03;;
46881;SDS011;44112;38.408;-122.974;2022-08-07T02:44:42;7.70;;;3.67;;
46881;SDS011;44112;38.408;-122.974;2022-08-07T02:47:10;10.70;;;4.03;;
46881;SDS011;44112;38.408;-122.974;2022-08-07T02:49:37;12.30;;;4.25;;
46881;SDS011;44112;38.408;-122.974;2022-08-07T02:52:04;11.50;;;4.15;;
46881;SDS011;44112;38.408;-122.974;2022-08-07T02:54:36;9.23;;;4.18;;
46881;SDS011;44112;38.408;-122.974;2022-08-07T02:57:06;9.38;;;4.18;;
46881;SDS011;44112;38.408;-122.974;2022-08-07T02:59:40;8.80;;;3.80;;
46881;SDS011;44112;38.408;-122.974;2022-08-07T03:02:14;12.70;;;3.67;;
46881;SDS011;44112;38.408;-122.974;2022-08-07T03:04:43;11.93;;;3.65;;
46881;SDS011;44112;38.408;-122.974;2022-08-07T03:07:11;13.10;;;3.92;;
46881;SDS011;44112;38.408;-122.974;2022-08-07T03:09:39;14.85;;;4.60;;
46881;SDS011;44112;38.408;-122.974;2022-08-07T03:12:07;15.85;;;4.22;;
46881;SDS011;44112;38.408;-122.974;2022-08-07T03:14:35;12.50;;;3.95;;
46881;SDS011;44112;38.408;-122.974;2022-08-07T03:17:02;17.38;;;5.70;;
46881;SDS011;44112;38.408;-122.974;2022-08-07T03:19:30;20.35;;;9.07;;
46881;SDS011;44112;38.408;-122.974;2022-08-07T03:21:59;25.48;;;12.25;;
46881;SDS011;44112;38.408;-122.974;2022-08-07T03:24:27;24.17;;;14.68;;
46881;SDS011;44112;38.408;-122.974;2022-08-07T03:26:57;24.95;;;15.77;;
46881;SDS011;44112;38.408;-122.974;2022-08-07T03:29:31;23.17;;;18.75;;
46881;SDS011;44112;38.408;-122.974;2022-08-07T03:32:00;30.20;;;22.25;;
46881;SDS011;44112;38.408;-122.974;2022-08-07T03:34:28;31.15;;;25.50;;
46881;SDS011;44112;38.408;-122.974;2022-08-07T03:36:56;33.85;;;25.65;;
46881;SDS011;44112;38.408;-122.974;2022-08-07T03:39:24;32.72;;;25.92;;
46881;SDS011;44112;38.408;-122.974;2022-08-07T03:41:53;30.50;;;22.73;;
46881;SDS011;44112;38.408;-122.974;2022-08-07T03:44:19;33.17;;;25.40;;
46881;SDS011;44112;38.408;-122.974;2022-08-07T03:46:46;28.20;;;24.60;;
46881;SDS011;44112;38.408;-122.974;2022-08-07T03:49:13;31.98;;;25.23;;
46881;SDS011;44112;38.408;-122.974;2022-08-07T03:51:40;32.03;;;23.52;;
46881;SDS011;44112;38.408;-122.974;2022-08-07T03:54:08;31.92;;;22.85;;
46881;SDS011;44112;38.408;-122.974;2022-08-07T03:56:35;27.42;;;21.83;;
46881;SDS011;44112;38.408;-122.974;2022-08-07T03:59:05;26.88;;;20.05;;
46881;SDS011;44112;38.408;-122.974;2022-08-07T04:01:33;26.00;;;19.85;;
46881;SDS011;44112;38.408;-122.974;2022-08-07T04:04:04;28.25;;;20.35;;
46881;SDS011;44112;38.408;-122.974;2022-08-07T04:06:31;24.98;;;19.98;;
46881;SDS011;44112;38.408;-122.974;2022-08-07T04:08:59;25.40;;;19.75;;
46881;SDS011;44112;38.408;-122.974;2022-08-07T04:11:27;30.65;;;19.70;;
46881;SDS011;44112;38.408;-122.974;2022-08-07T04:13:55;25.75;;;19.42;;
46881;SDS011;44112;38.408;-122.974;2022-08-07T04:16:23;23.83;;;19.17;;
46881;SDS011;44112;38.408;-122.974;2022-08-07T04:18:50;24.98;;;19.15;;
46881;SDS011;44112;38.408;-122.974;2022-08-07T04:21:16;21.35;;;16.90;;
46881;SDS011;44112;38.408;-122.974;2022-08-07T04:23:44;22.20;;;16.65;;
46881;SDS011;44112;38.408;-122.974;2022-08-07T04:26:12;21.02;;;17.45;;
46881;SDS011;44112;38.408;-122.974;2022-08-07T04:28:39;20.73;;;16.73;;
46881;SDS011;44112;38.408;-122.974;2022-08-07T04:31:06;21.48;;;16.52;;
46881;SDS011;44112;38.408;-122.974;2022-08-07T04:33:37;26.17;;;17.10;;
46881;SDS011;44112;38.408;-122.974;2022-08-07T04:36:05;20.45;;;15.63;;
46881;SDS011;44112;38.408;-122.974;2022-08-07T04:38:34;27.15;;;15.15;;
46881;SDS011;44112;38.408;-122.974;2022-08-07T04:41:02;20.88;;;14.77;;
46881;SDS011;44112;38.408;-122.974;2022-08-07T04:43:32;18.63;;;15.27;;
46881;SDS011;44112;38.408;-122.974;2022-08-07T04:54:31;19.58;;;14.52;;
46881;SDS011;44112;38.408;-122.974;2022-08-07T04:57:05;18.65;;;13.90;;
46881;SDS011;44112;38.408;-122.974;2022-08-07T05:00:08;21.33;;;14.10;;
46881;SDS011;44112;38.408;-122.974;2022-08-07T05:05:22;18.92;;;13.90;;
46881;SDS011;44112;38.408;-122.974;2022-08-07T05:08:17;19.33;;;14.15;;
46881;SDS011;44112;38.408;-122.974;2022-08-07T05:11:12;16.35;;;12.90;;
46881;SDS011;44112;38.408;-122.974;2022-08-07T05:13:46;21.05;;;13.63;;
46881;SDS011;44112;38.408;-122.974;2022-08-07T05:16:44;17.38;;;13.00;;
46881;SDS011;44112;38.408;-122.974;2022-08-07T05:19:16;18.35;;;13.18;;
46881;SDS011;44112;38.408;-122.974;2022-08-07T05:21:50;15.63;;;12.45;;
46881;SDS011;44112;38.408;-122.974;2022-08-07T05:24:19;19.45;;;13.70;;
46881;SDS011;44112;38.408;-122.974;2022-08-07T05:26:48;17.48;;;13.07;;
46881;SDS011;44112;38.408;-122.974;2022-08-07T05:29:18;16.73;;;12.73;;
46881;SDS011;44112;38.408;-122.974;2022-08-07T05:31:47;16.83;;;12.88;;
46881;SDS011;44112;38.408;-122.974;2022-08-07T05:34:15;17.95;;;12.32;;
46881;SDS011;44112;38.408;-122.974;2022-08-07T05:36:45;15.43;;;12.60;;
46881;SDS011;44112;38.408;-122.974;2022-08-07T05:39:15;15.73;;;12.20;;
46881;SDS011;44112;38.408;-122.974;2022-08-07T05:41:46;17.40;;;12.40;;
46881;SDS011;44112;38.408;-122.974;2022-08-07T05:44:14;16.40;;;12.27;;
46881;SDS011;44112;38.408;-122.974;2022-08-07T05:46:45;19.63;;;11.93;;
46881;SDS011;44112;38.408;-122.974;2022-08-07T05:49:15;16.20;;;10.98;;
46881;SDS011;44112;38.408;-122.974;2022-08-07T05:51:43;15.10;;;11.55;;
46881;SDS011;44112;38.408;-122.974;2022-08-07T05:54:10;15.48;;;11.68;;
46881;SDS011;44112;38.408;-122.974;2022-08-07T05:56:40;16.67;;;11.80;;
46881;SDS011;44112;38.408;-122.974;2022-08-07T05:59:11;14.75;;;10.60;;
46881;SDS011;44112;38.408;-122.974;2022-08-07T06:01:40;14.25;;;11.00;;
46881;SDS011;44112;38.408;-122.974;2022-08-07T06:04:08;13.13;;;10.57;;
46881;SDS011;44112;38.408;-122.974;2022-08-07T06:06:36;14.77;;;11.38;;
46881;SDS011;44112;38.408;-122.974;2022-08-07T06:09:03;15.15;;;11.27;;
46881;SDS011;44112;38.408;-122.974;2022-08-07T06:11:31;14.25;;;11.73;;
46881;SDS011;44112;38.408;-122.974;2022-08-07T06:13:58;14.38;;;10.25;;
46881;SDS011;44112;38.408;-122.974;2022-08-07T06:16:26;13.10;;;10.23;;
46881;SDS011;44112;38.408;-122.974;2022-08-07T06:18:58;13.38;;;9.93;;
46881;SDS011;44112;38.408;-122.974;2022-08-07T06:21:27;13.35;;;10.85;;
46881;SDS011;44112;38.408;-122.974;2022-08-07T06:23:54;15.73;;;10.55;;
46881;SDS011;44112;38.408;-122.974;2022-08-07T06:26:21;12.43;;;9.48;;
46881;SDS011;44112;38.408;-122.974;2022-08-07T06:28:48;13.98;;;10.02;;
46881;SDS011;44112;38.408;-122.974;2022-08-07T06:31:22;14.60;;;10.55;;
46881;SDS011;44112;38.408;-122.974;2022-08-07T06:33:49;13.25;;;9.93;;
46881;SDS011;44112;38.408;-122.974;2022-08-07T06:36:16;14.93;;;10.05;;
46881;SDS011;44112;38.408;-122.974;2022-08-07T06:38:43;15.63;;;10.23;;
46881;SDS011;44112;38.408;-122.974;2022-08-07T06:41:11;13.18;;;10.35;;
46881;SDS011;44112;38.408;-122.974;2022-08-07T06:43:43;11.85;;;9.52;;
46881;SDS011;44112;38.408;-122.974;2022-08-07T06:46:12;11.27;;;9.10;;
46881;SDS011;44112;38.408;-122.974;2022-08-07T06:48:41;11.93;;;9.32;;
46881;SDS011;44112;38.408;-122.974;2022-08-07T06:51:09;13.02;;;10.07;;
46881;SDS011;44112;38.408;-122.974;2022-08-07T06:53:39;12.40;;;9.68;;
46881;SDS011;44112;38.408;-122.974;2022-08-07T06:56:06;13.35;;;9.73;;
46881;SDS011;44112;38.408;-122.974;2022-08-07T06:58:35;12.63;;;9.52;;
46881;SDS011;44112;38.408;-122.974;2022-08-07T07:01:07;11.38;;;9.05;;
46881;SDS011;44112;38.408;-122.974;2022-08-07T07:03:38;12.07;;;8.98;;
46881;SDS011;44112;38.408;-122.974;2022-08-07T07:06:06;12.00;;;8.90;;
46881;SDS011;44112;38.408;-122.974;2022-08-07T07:08:34;11.70;;;8.85;;
46881;SDS011;44112;38.408;-122.974;2022-08-07T07:11:02;12.80;;;8.98;;
46881;SDS011;44112;38.408;-122.974;2022-08-07T07:13:32;11.45;;;8.82;;
46881;SDS011;44112;38.408;-122.974;2022-08-07T07:16:13;11.57;;;8.50;;
46881;SDS011;44112;38.408;-122.974;2022-08-07T07:18:44;16.38;;;9.07;;
46881;SDS011;44112;38.408;-122.974;2022-08-07T07:23:49;10.45;;;8.35;;
46881;SDS011;44112;38.408;-122.974;2022-08-07T07:26:17;11.35;;;8.18;;
46881;SDS011;44112;38.408;-122.974;2022-08-07T07:28:50;11.48;;;8.32;;
46881;SDS011;44112;38.408;-122.974;2022-08-07T07:31:22;11.73;;;8.40;;
46881;SDS011;44112;38.408;-122.974;2022-08-07T07:34:17;11.10;;;8.05;;
46881;SDS011;44112;38.408;-122.974;2022-08-07T07:36:49;11.80;;;8.40;;
46881;SDS011;44112;38.408;-122.974;2022-08-07T07:39:17;11.43;;;8.30;;
46881;SDS011;44112;38.408;-122.974;2022-08-07T07:41:46;11.45;;;7.72;;
46881;SDS011;44112;38.408;-122.974;2022-08-07T07:44:17;11.40;;;8.57;;
46881;SDS011;44112;38.408;-122.974;2022-08-07T07:46:45;9.55;;;7.28;;
46881;SDS011;44112;38.408;-122.974;2022-08-07T07:49:14;10.45;;;8.02;;
46881;SDS011;44112;38.408;-122.974;2022-08-07T07:51:44;10.40;;;7.82;;
46881;SDS011;44112;38.408;-122.974;2022-08-07T07:54:13;10.80;;;8.13;;
46881;SDS011;44112;38.408;-122.974;2022-08-07T07:56:41;11.40;;;8.45;;
46881;SDS011;44112;38.408;-122.974;2022-08-07T07:59:09;10.48;;;7.65;;
46881;SDS011;44112;38.408;-122.974;2022-08-07T08:01:39;11.68;;;7.82;;
46881;SDS011;44112;38.408;-122.974;2022-08-07T08:04:09;12.30;;;7.93;;
46881;SDS011;44112;38.408;-122.974;2022-08-07T08:06:42;11.27;;;7.15;;
46881;SDS011;44112;38.408;-122.974;2022-08-07T08:09:10;10.75;;;8.15;;
46881;SDS011;44112;38.408;-122.974;2022-08-07T08:11:39;11.82;;;7.75;;
46881;SDS011;44112;38.408;-122.974;2022-08-07T08:14:06;9.45;;;7.35;;
46881;SDS011;44112;38.408;-122.974;2022-08-07T08:16:37;11.75;;;7.43;;
46881;SDS011;44112;38.408;-122.974;2022-08-07T08:19:08;10.35;;;7.10;;
46881;SDS011;44112;38.408;-122.974;2022-08-07T08:21:39;11.15;;;7.72;;
46881;SDS011;44112;38.408;-122.974;2022-08-07T08:24:26;12.63;;;8.00;;
46881;SDS011;44112;38.408;-122.974;2022-08-07T08:27:14;10.40;;;7.30;;
46881;SDS011;44112;38.408;-122.974;2022-08-07T08:29:48;11.73;;;7.55;;
46881;SDS011;44112;38.408;-122.974;2022-08-07T08:32:20;12.63;;;7.53;;
46881;SDS011;44112;38.408;-122.974;2022-08-07T08:34:49;10.73;;;7.15;;
46881;SDS011;44112;38.408;-122.974;2022-08-07T08:37:18;12.40;;;6.85;;
46881;SDS011;44112;38.408;-122.974;2022-08-07T08:39:46;10.48;;;6.85;;
46881;SDS011;44112;38.408;-122.974;2022-08-07T08:45:04;13.32;;;7.47;;
46881;SDS011;44112;38.408;-122.974;2022-08-07T08:50:53;11.10;;;7.03;;
46881;SDS011;44112;38.408;-122.974;2022-08-07T08:56:43;9.35;;;6.55;;
46881;SDS011;44112;38.408;-122.974;2022-08-07T09:04:42;9.48;;;6.93;;
46881;SDS011;44112;38.408;-122.974;2022-08-07T09:10:09;11.20;;;6.97;;
46881;SDS011;44112;38.408;-122.974;2022-08-07T09:12:55;9.27;;;6.35;;
46881;SDS011;44112;38.408;-122.974;2022-08-07T09:15:38;10.15;;;6.43;;
46881;SDS011;44112;38.408;-122.974;2022-08-07T09:18:19;8.95;;;6.20;;
46881;SDS011;44112;38.408;-122.974;2022-08-07T09:26:17;9.80;;;6.15;;
46881;SDS011;44112;38.408;-122.974;2022-08-07T09:28:58;9.88;;;6.32;;
46881;SDS011;44112;38.408;-122.974;2022-08-07T09:31:41;9.85;;;6.60;;
46881;SDS011;44112;38.408;-122.974;2022-08-07T09:51:48;10.60;;;6.70;;
46881;SDS011;44112;38.408;-122.974;2022-08-07T09:54:43;8.77;;;5.75;;
46881;SDS011;44112;38.408;-122.974;2022-08-07T09:57:23;8.82;;;5.75;;
46881;SDS011;44112;38.408;-122.974;2022-08-07T10:00:20;9.00;;;6.25;;
46881;SDS011;44112;38.408;-122.974;2022-08-07T10:03:06;9.23;;;5.90;;
46881;SDS011;44112;38.408;-122.974;2022-08-07T10:14:03;9.15;;;5.43;;
46881;SDS011;44112;38.408;-122.974;2022-08-07T10:22:11;8.00;;;5.38;;
46881;SDS011;44112;38.408;-122.974;2022-08-07T10:30:14;9.32;;;5.60;;
46881;SDS011;44112;38.408;-122.974;2022-08-07T10:35:29;7.40;;;5.20;;
46881;SDS011;44112;38.408;-122.974;2022-08-07T10:40:57;7.93;;;5.10;;
46881;SDS011;44112;38.408;-122.974;2022-08-07T10:43:53;9.75;;;5.55;;
46881;SDS011;44112;38.408;-122.974;2022-08-07T10:46:27;8.00;;;5.15;;
46881;SDS011;44112;38.408;-122.974;2022-08-07T10:52:31;8.40;;;5.10;;
46881;SDS011;44112;38.408;-122.974;2022-08-07T10:55:19;8.43;;;5.25;;
46881;SDS011;44112;38.408;-122.974;2022-08-07T11:00:26;7.20;;;4.95;;
46881;SDS011;44112;38.408;-122.974;2022-08-07T11:03:19;8.00;;;5.13;;
46881;SDS011;44112;38.408;-122.974;2022-08-07T11:06:13;7.95;;;5.13;;
46881;SDS011;44112;38.408;-122.974;2022-08-07T11:08:59;7.43;;;4.80;;
46881;SDS011;44112;38.408;-122.974;2022-08-07T11:11:34;7.68;;;5.15;;
46881;SDS011;44112;38.408;-122.974;2022-08-07T11:14:20;7.57;;;4.95;;
46881;SDS011;44112;38.408;-122.974;2022-08-07T11:19:48;7.63;;;4.82;;
46881;SDS011;44112;38.408;-122.974;2022-08-07T11:22:26;7.50;;;4.57;;
46881;SDS011;44112;38.408;-122.974;2022-08-07T11:27:39;8.40;;;4.82;;
46881;SDS011;44112;38.408;-122.974;2022-08-07T11:30:10;9.60;;;5.38;;
46881;SDS011;44112;38.408;-122.974;2022-08-07T11:32:43;8.02;;;5.00;;
46881;SDS011;44112;38.408;-122.974;2022-08-07T11:35:17;7.45;;;4.68;;
46881;SDS011;44112;38.408;-122.974;2022-08-07T11:43:22;7.90;;;5.13;;
46881;SDS011;44112;38.408;-122.974;2022-08-07T11:46:06;8.50;;;5.10;;
46881;SDS011;44112;38.408;-122.974;2022-08-07T12:00:18;7.38;;;4.47;;
46881;SDS011;44112;38.408;-122.974;2022-08-07T12:09:00;6.90;;;4.60;;
46881;SDS011;44112;38.408;-122.974;2022-08-07T12:11:37;8.52;;;4.70;;
46881;SDS011;44112;38.408;-122.974;2022-08-07T12:14:11;6.53;;;4.10;;
46881;SDS011;44112;38.408;-122.974;2022-08-07T12:16:43;7.40;;;4.60;;
46881;SDS011;44112;38.408;-122.974;2022-08-07T12:19:15;7.25;;;4.15;;
46881;SDS011;44112;38.408;-122.974;2022-08-07T12:22:09;7.70;;;4.70;;
46881;SDS011;44112;38.408;-122.974;2022-08-07T12:27:59;7.00;;;4.15;;
46881;SDS011;44112;38.408;-122.974;2022-08-07T12:30:32;7.80;;;4.63;;
46881;SDS011;44112;38.408;-122.974;2022-08-07T12:33:04;7.13;;;4.30;;
46881;SDS011;44112;38.408;-122.974;2022-08-07T12:35:37;7.63;;;4.55;;
46881;SDS011;44112;38.408;-122.974;2022-08-07T12:38:05;6.55;;;4.25;;
46881;SDS011;44112;38.408;-122.974;2022-08-07T12:40:33;6.97;;;4.20;;
46881;SDS011;44112;38.408;-122.974;2022-08-07T12:43:02;7.18;;;4.80;;
46881;SDS011;44112;38.408;-122.974;2022-08-07T12:45:36;11.05;;;4.90;;
46881;SDS011;44112;38.408;-122.974;2022-08-07T12:48:19;7.97;;;4.35;;
46881;SDS011;44112;38.408;-122.974;2022-08-07T12:51:12;9.32;;;4.53;;
46881;SDS011;44112;38.408;-122.974;2022-08-07T12:56:35;7.88;;;4.55;;
46881;SDS011;44112;38.408;-122.974;2022-08-07T12:59:06;7.45;;;4.28;;
46881;SDS011;44112;38.408;-122.974;2022-08-07T13:04:43;6.43;;;3.88;;
46881;SDS011;44112;38.408;-122.974;2022-08-07T13:16:14;6.60;;;4.00;;
46881;SDS011;44112;38.408;-122.974;2022-08-07T13:18:51;8.15;;;4.15;;
46881;SDS011;44112;38.408;-122.974;2022-08-07T13:21:29;7.13;;;4.20;;
46881;SDS011;44112;38.408;-122.974;2022-08-07T13:35:18;7.35;;;4.28;;
46881;SDS011;44112;38.408;-122.974;2022-08-07T13:37:58;6.75;;;3.85;;
46881;SDS011;44112;38.408;-122.974;2022-08-07T13:43:22;6.57;;;3.70;;
46881;SDS011;44112;38.408;-122.974;2022-08-07T13:45:53;6.57;;;3.88;;
46881;SDS011;44112;38.408;-122.974;2022-08-07T13:48:23;6.50;;;3.95;;
46881;SDS011;44112;38.408;-122.974;2022-08-07T13:50:54;6.53;;;3.85;;
46881;SDS011;44112;38.408;-122.974;2022-08-07T13:53:32;7.47;;;4.18;;
46881;SDS011;44112;38.408;-122.974;2022-08-07T13:56:04;6.95;;;3.90;;
46881;SDS011;44112;38.408;-122.974;2022-08-07T13:58:39;6.45;;;3.83;;
46881;SDS011;44112;38.408;-122.974;2022-08-07T14:01:26;6.75;;;3.80;;
46881;SDS011;44112;38.408;-122.974;2022-08-07T14:03:57;7.13;;;4.00;;
46881;SDS011;44112;38.408;-122.974;2022-08-07T14:06:40;6.88;;;3.92;;
46881;SDS011;44112;38.408;-122.974;2022-08-07T14:09:30;6.40;;;3.95;;
46881;SDS011;44112;38.408;-122.974;2022-08-07T14:12:00;6.55;;;4.00;;
46881;SDS011;44112;38.408;-122.974;2022-08-07T14:15:19;6.50;;;3.75;;
46881;SDS011;44112;38.408;-122.974;2022-08-07T14:17:24;7.30;;;4.25;;
46881;SDS011;44112;38.408;-122.974;2022-08-07T14:22:24;6.13;;;3.70;;
46881;SDS011;44112;38.408;-122.974;2022-08-07T14:25:05;7.22;;;3.90;;
46881;SDS011;44112;38.408;-122.974;2022-08-07T14:27:40;6.97;;;3.80;;
46881;SDS011;44112;38.408;-122.974;2022-08-07T14:30:11;6.65;;;3.83;;
46881;SDS011;44112;38.408;-122.974;2022-08-07T14:33:00;6.65;;;4.07;;
46881;SDS011;44112;38.408;-122.974;2022-08-07T14:35:30;7.05;;;3.60;;
46881;SDS011;44112;38.408;-122.974;2022-08-07T14:40:28;6.75;;;3.90;;
46881;SDS011;44112;38.408;-122.974;2022-08-07T14:43:05;6.70;;;3.60;;
46881;SDS011;44112;38.408;-122.974;2022-08-07T14:48:25;5.93;;;3.80;;
46881;SDS011;44112;38.408;-122.974;2022-08-07T14:51:00;6.80;;;3.97;;
46881;SDS011;44112;38.408;-122.974;2022-08-07T14:53:32;6.40;;;3.70;;
46881;SDS011;44112;38.408;-122.974;2022-08-07T14:56:04;5.65;;;3.42;;
46881;SDS011;44112;38.408;-122.974;2022-08-07T14:58:41;6.22;;;3.92;;
46881;SDS011;44112;38.408;-122.974;2022-08-07T15:01:13;6.78;;;3.65;;
46881;SDS011;44112;38.408;-122.974;2022-08-07T15:03:41;5.97;;;3.50;;
46881;SDS011;44112;38.408;-122.974;2022-08-07T15:06:10;6.13;;;3.50;;
46881;SDS011;44112;38.408;-122.974;2022-08-07T15:08:42;6.20;;;3.53;;
46881;SDS011;44112;38.408;-122.974;2022-08-07T15:11:14;6.22;;;3.58;;
46881;SDS011;44112;38.408;-122.974;2022-08-07T15:13:53;6.57;;;3.70;;
46881;SDS011;44112;38.408;-122.974;2022-08-07T15:16:24;6.22;;;3.63;;
46881;SDS011;44112;38.408;-122.974;2022-08-07T15:21:40;6.65;;;3.75;;
46881;SDS011;44112;38.408;-122.974;2022-08-07T15:24:11;7.13;;;3.88;;
46881;SDS011;44112;38.408;-122.974;2022-08-07T15:26:48;6.38;;;3.40;;
46881;SDS011;44112;38.408;-122.974;2022-08-07T15:29:41;7.00;;;3.50;;
46881;SDS011;44112;38.408;-122.974;2022-08-07T15:32:11;6.73;;;3.57;;
46881;SDS011;44112;38.408;-122.974;2022-08-07T15:34:40;6.30;;;3.45;;
46881;SDS011;44112;38.408;-122.974;2022-08-07T15:37:10;6.78;;;3.85;;
46881;SDS011;44112;38.408;-122.974;2022-08-07T15:39:45;6.05;;;3.50;;
46881;SDS011;44112;38.408;-122.974;2022-08-07T15:48:50;6.68;;;3.67;;
46881;SDS011;44112;38.408;-122.974;2022-08-07T15:50:54;7.30;;;3.83;;
46881;SDS011;44112;38.408;-122.974;2022-08-07T15:53:27;6.25;;;3.28;;
46881;SDS011;44112;38.408;-122.974;2022-08-07T15:56:03;6.07;;;3.30;;
46881;SDS011;44112;38.408;-122.974;2022-08-07T16:01:23;7.28;;;3.58;;
46881;SDS011;44112;38.408;-122.974;2022-08-07T16:03:54;6.35;;;3.45;;
46881;SDS011;44112;38.408;-122.974;2022-08-07T16:06:34;6.18;;;3.38;;
46881;SDS011;44112;38.408;-122.974;2022-08-07T16:09:06;5.88;;;3.35;;
46881;SDS011;44112;38.408;-122.974;2022-08-07T16:17:38;7.78;;;3.45;;
46881;SDS011;44112;38.408;-122.974;2022-08-07T16:20:22;6.50;;;3.70;;
46881;SDS011;44112;38.408;-122.974;2022-08-07T16:23:14;6.78;;;3.35;;
46881;SDS011;44112;38.408;-122.974;2022-08-07T16:25:54;6.50;;;3.40;;
46881;SDS011;44112;38.408;-122.974;2022-08-07T16:34:03;7.18;;;3.90;;
46881;SDS011;44112;38.408;-122.974;2022-08-07T16:36:39;5.97;;;3.35;;
46881;SDS011;44112;38.408;-122.974;2022-08-07T16:42:03;6.80;;;3.58;;
46881;SDS011;44112;38.408;-122.974;2022-08-07T16:59:49;6.10;;;3.45;;
46881;SDS011;44112;38.408;-122.974;2022-08-07T17:18:29;6.38;;;3.40;;
46881;SDS011;44112;38.408;-122.974;2022-08-07T17:21:13;6.68;;;3.45;;
46881;SDS011;44112;38.408;-122.974;2022-08-07T17:26:31;5.85;;;3.13;;
46881;SDS011;44112;38.408;-122.974;2022-08-07T17:29:16;5.90;;;3.22;;
46881;SDS011;44112;38.408;-122.974;2022-08-07T17:32:15;6.30;;;3.40;;
46881;SDS011;44112;38.408;-122.974;2022-08-07T17:34:54;5.82;;;3.40;;
46881;SDS011;44112;38.408;-122.974;2022-08-07T17:43:15;6.03;;;3.25;;
46881;SDS011;44112;38.408;-122.974;2022-08-07T17:45:55;5.93;;;3.20;;
46881;SDS011;44112;38.408;-122.974;2022-08-07T17:48:43;8.02;;;3.47;;
46881;SDS011;44112;38.408;-122.974;2022-08-07T17:51:30;10.70;;;3.63;;
46881;SDS011;44112;38.408;-122.974;2022-08-07T17:57:00;8.98;;;4.30;;
46881;SDS011;44112;38.408;-122.974;2022-08-07T17:59:43;8.70;;;3.97;;
46881;SDS011;44112;38.408;-122.974;2022-08-07T18:02:21;9.85;;;4.13;;
46881;SDS011;44112;38.408;-122.974;2022-08-07T18:15:45;6.97;;;3.97;;
46881;SDS011;44112;38.408;-122.974;2022-08-07T18:18:20;11.05;;;4.28;;
46881;SDS011;44112;38.408;-122.974;2022-08-07T18:21:04;8.63;;;3.72;;
46881;SDS011;44112;38.408;-122.974;2022-08-07T18:26:50;11.07;;;4.53;;
46881;SDS011;44112;38.408;-122.974;2022-08-07T18:35:24;12.68;;;4.10;;